createdAt,value
2017-08-08T00:00:51.024Z,6.13
2017-08-08T00:03:18.500Z,8.67
2017-08-08T00:05:45.981Z,5.33
2017-08-08T00:08:13.455Z,7.23
2017-08-08T00:10:41.022Z,7.53
2017-08-08T00:13:08.496Z,7.63
2017-08-08T00:15:35.993Z,6.20
2017-08-08T00:18:03.451Z,8.63
2017-08-08T00:20:30.959Z,5.60
2017-08-08T00:22:58.632Z,6.73
2017-08-08T00:25:26.130Z,5.83
2017-08-08T00:27:53.590Z,5.03
2017-08-08T00:30:21.071Z,7.70
2017-08-08T00:32:48.550Z,7.43
2017-08-08T00:35:16.033Z,7.33
2017-08-08T00:37:44.269Z,9.73
2017-08-08T00:40:11.767Z,7.30
2017-08-08T00:42:40.025Z,6.40
2017-08-08T00:45:07.506Z,5.73
2017-08-08T00:47:35.863Z,10.77
2017-08-08T00:50:03.323Z,7.47
2017-08-08T00:52:31.571Z,10.17
2017-08-08T00:54:59.055Z,11.83
2017-08-08T00:57:26.782Z,6.77
2017-08-08T00:59:54.238Z,8.73
2017-08-08T01:02:21.718Z,8.60
2017-08-08T01:04:49.205Z,7.63
2017-08-08T01:07:17.467Z,7.50
2017-08-08T01:09:45.725Z,7.27
2017-08-08T01:12:13.197Z,8.13
2017-08-08T01:14:40.682Z,8.83
2017-08-08T01:17:08.160Z,6.50
2017-08-08T01:19:36.010Z,5.87
2017-08-08T01:22:03.683Z,5.63
2017-08-08T01:24:31.165Z,6.90
2017-08-08T01:26:59.469Z,10.93
2017-08-08T01:29:27.702Z,6.40
2017-08-08T01:31:55.161Z,9.63
2017-08-08T01:34:22.808Z,14.00
2017-08-08T01:36:50.308Z,9.07
2017-08-08T01:39:17.773Z,8.33
2017-08-08T01:41:45.393Z,6.07
2017-08-08T01:44:12.976Z,9.43
2017-08-08T01:46:40.450Z,8.53
2017-08-08T01:49:08.001Z,8.20
2017-08-08T01:51:35.471Z,6.53
2017-08-08T01:54:04.004Z,7.40
2017-08-08T01:56:31.485Z,6.20
2017-08-08T01:58:58.957Z,8.70
2017-08-08T02:01:26.421Z,7.07
2017-08-08T02:03:54.675Z,9.67
2017-08-08T02:06:22.154Z,8.20
2017-08-08T02:08:50.436Z,6.70
2017-08-08T02:11:18.701Z,8.07
2017-08-08T02:13:47.070Z,10.03
2017-08-08T02:16:14.537Z,7.53
2017-08-08T02:18:42.789Z,7.03
2017-08-08T02:21:10.253Z,12.43
2017-08-08T02:23:37.734Z,6.50
2017-08-08T02:26:05.962Z,6.60
2017-08-08T02:28:33.587Z,11.53
2017-08-08T02:31:01.056Z,6.47
2017-08-08T02:33:28.526Z,6.83
2017-08-08T02:35:56.022Z,6.80
2017-08-08T02:38:23.510Z,7.17
2017-08-08T02:40:51.738Z,9.27
2017-08-08T02:43:19.214Z,12.90
2017-08-08T02:45:46.694Z,10.60
2017-08-08T02:48:14.157Z,9.63
2017-08-08T02:50:41.661Z,6.67
2017-08-08T02:53:09.124Z,7.80
2017-08-08T02:55:36.592Z,7.57
2017-08-08T02:58:04.066Z,8.03
2017-08-08T03:00:32.329Z,10.87
2017-08-08T03:03:00.586Z,6.33
2017-08-08T03:05:28.781Z,6.63
2017-08-08T03:07:56.273Z,7.03
2017-08-08T03:10:23.775Z,7.07
2017-08-08T03:12:51.246Z,8.03
2017-08-08T03:15:18.728Z,5.90
2017-08-08T03:17:46.979Z,8.80
2017-08-08T03:20:14.462Z,6.03
2017-08-08T03:22:41.935Z,8.20
2017-08-08T03:25:09.410Z,6.27
2017-08-08T03:27:36.865Z,7.27
2017-08-08T03:30:04.347Z,5.23
2017-08-08T03:32:31.814Z,7.47
2017-08-08T03:35:00.069Z,9.77
2017-08-08T03:37:27.542Z,7.20
2017-08-08T03:39:55.039Z,6.53
2017-08-08T03:42:22.526Z,7.37
2017-08-08T03:44:49.983Z,7.67
2017-08-08T03:47:17.690Z,7.30
2017-08-08T03:49:45.249Z,6.60
2017-08-08T03:52:13.522Z,7.87
2017-08-08T03:54:40.984Z,5.93
2017-08-08T03:57:09.231Z,7.17
2017-08-08T03:59:36.705Z,6.07
2017-08-08T04:02:04.170Z,9.83
2017-08-08T04:04:32.440Z,6.10
2017-08-08T04:06:59.926Z,7.67
2017-08-08T04:09:28.190Z,7.70
2017-08-08T04:11:56.486Z,6.23
2017-08-08T04:14:23.966Z,7.47
2017-08-08T04:16:51.523Z,7.37
2017-08-08T04:19:26.015Z,5.47
2017-08-08T04:21:53.504Z,9.90
2017-08-08T04:24:20.971Z,6.07
2017-08-08T04:26:48.445Z,9.07
2017-08-08T04:29:15.922Z,9.10
2017-08-08T04:31:44.167Z,5.90
2017-08-08T04:34:11.622Z,7.67
2017-08-08T04:36:39.109Z,6.00
2017-08-08T04:39:07.414Z,7.63
2017-08-08T04:44:09.147Z,5.90
2017-08-08T04:46:36.622Z,9.33
2017-08-08T04:49:04.886Z,7.50
2017-08-08T04:51:32.455Z,7.30
2017-08-08T04:54:00.713Z,10.40
2017-08-08T04:56:28.204Z,9.93
2017-08-08T04:58:55.676Z,10.70
2017-08-08T05:01:23.291Z,11.23
2017-08-08T05:03:50.747Z,11.83
2017-08-08T05:06:18.230Z,8.73
2017-08-08T05:08:45.702Z,7.67
2017-08-08T05:11:13.176Z,8.47
2017-08-08T05:13:40.763Z,9.00
2017-08-08T05:16:08.229Z,10.40
2017-08-08T05:18:35.718Z,18.83
2017-08-08T05:21:03.319Z,10.37
2017-08-08T05:23:30.804Z,8.57
2017-08-08T05:25:58.281Z,13.50
2017-08-08T05:28:26.527Z,10.83
2017-08-08T05:30:53.986Z,9.03
2017-08-08T05:33:21.476Z,7.10
2017-08-08T05:35:49.686Z,8.90
2017-08-08T05:38:17.227Z,6.20
2017-08-08T05:40:44.702Z,9.33
2017-08-08T05:43:12.208Z,9.93
2017-08-08T05:45:40.445Z,6.97
2017-08-08T05:48:07.922Z,9.83
2017-08-08T05:50:35.394Z,7.40
2017-08-08T05:53:02.993Z,7.80
2017-08-08T05:55:30.479Z,8.30
2017-08-08T05:57:58.711Z,8.60
2017-08-08T06:00:26.175Z,7.93
2017-08-08T06:02:53.661Z,8.87
2017-08-08T06:05:21.263Z,8.97
2017-08-08T06:07:49.683Z,6.60
2017-08-08T06:10:17.144Z,8.07
2017-08-08T06:12:45.549Z,9.60
2017-08-08T06:15:13.013Z,9.03
2017-08-08T06:17:40.543Z,6.93
2017-08-08T06:20:08.017Z,9.17
2017-08-08T06:22:35.574Z,9.10
2017-08-08T06:25:03.061Z,7.30
2017-08-08T06:27:30.581Z,9.93
2017-08-08T06:29:58.067Z,6.27
2017-08-08T06:32:25.538Z,12.43
2017-08-08T06:34:53.777Z,5.53
2017-08-08T06:37:21.256Z,10.83
2017-08-08T06:39:48.894Z,7.73
2017-08-08T06:42:16.349Z,10.90
2017-08-08T06:44:43.843Z,9.70
2017-08-08T06:47:11.346Z,8.03
2017-08-08T06:49:39.006Z,5.73
2017-08-08T06:55:00.041Z,7.20
2017-08-08T06:57:27.841Z,5.00
2017-08-08T06:59:55.316Z,5.27
2017-08-08T07:02:23.711Z,5.63
2017-08-08T07:04:51.209Z,6.80
2017-08-08T07:07:18.704Z,15.00
2017-08-08T07:09:46.961Z,9.93
2017-08-08T07:12:14.440Z,10.10
2017-08-08T07:14:42.683Z,6.47
2017-08-08T07:17:10.288Z,7.23
2017-08-08T07:19:37.775Z,5.30
2017-08-08T07:22:05.478Z,4.47
2017-08-08T07:24:32.991Z,4.93
2017-08-08T07:27:00.482Z,8.60
2017-08-08T07:29:50.975Z,4.10
2017-08-08T07:32:18.450Z,5.07
2017-08-08T07:34:46.679Z,6.60
2017-08-08T07:37:14.170Z,14.60
2017-08-08T07:39:41.671Z,6.60
2017-08-08T07:42:09.309Z,5.57
2017-08-08T07:44:37.560Z,8.10
2017-08-08T07:47:05.080Z,5.40
2017-08-08T07:49:52.542Z,7.00
2017-08-08T07:52:20.058Z,9.70
2017-08-08T07:54:47.513Z,5.70
2017-08-08T07:57:15.229Z,9.23
2017-08-08T07:59:42.712Z,6.27
2017-08-08T08:02:10.183Z,9.77
2017-08-08T08:04:37.667Z,8.53
2017-08-08T08:07:05.146Z,9.40
2017-08-08T08:09:32.631Z,5.30
2017-08-08T08:12:00.128Z,9.23
2017-08-08T08:14:27.783Z,6.57
2017-08-08T08:16:55.401Z,7.73
2017-08-08T08:19:23.874Z,11.60
2017-08-08T08:21:52.110Z,9.80
2017-08-08T08:24:19.592Z,7.77
2017-08-08T08:26:47.064Z,13.67
2017-08-08T08:29:14.705Z,12.30
2017-08-08T08:31:42.256Z,12.30
2017-08-08T08:34:09.733Z,9.63
2017-08-08T08:36:37.626Z,9.20
2017-08-08T08:39:05.108Z,6.93
2017-08-08T08:41:32.594Z,8.70
2017-08-08T08:44:00.074Z,6.87
2017-08-08T08:46:27.550Z,8.20
2017-08-08T08:48:55.835Z,7.37
2017-08-08T08:51:23.302Z,8.40
2017-08-08T08:53:50.880Z,10.50
2017-08-08T08:56:18.333Z,11.17
2017-08-08T08:58:45.824Z,5.10
2017-08-08T09:01:13.278Z,6.47
2017-08-08T09:03:40.752Z,4.80
2017-08-08T09:06:08.241Z,7.37
2017-08-08T09:08:35.713Z,5.43
2017-08-08T09:11:03.207Z,7.43
2017-08-08T09:13:30.831Z,7.10
2017-08-08T09:15:59.121Z,8.23
2017-08-08T09:18:26.590Z,19.23
2017-08-08T09:20:54.064Z,8.03
2017-08-08T09:23:21.541Z,7.10
2017-08-08T09:25:49.789Z,7.33
2017-08-08T09:28:17.257Z,5.83
2017-08-08T09:30:44.730Z,9.10
2017-08-08T09:33:12.976Z,8.13
2017-08-08T09:35:40.784Z,8.20
2017-08-08T09:38:08.256Z,9.50
2017-08-08T09:40:35.729Z,8.87
2017-08-08T09:43:03.926Z,7.87
2017-08-08T09:45:31.406Z,9.80
2017-08-08T09:47:59.630Z,8.93
2017-08-08T09:50:27.153Z,6.90
2017-08-08T09:52:54.657Z,7.77
2017-08-08T09:55:22.164Z,5.83
2017-08-08T09:57:50.399Z,7.50
2017-08-08T10:00:17.857Z,10.97
2017-08-08T10:02:45.343Z,7.53
2017-08-08T10:05:13.580Z,6.00
2017-08-08T10:07:41.117Z,5.70
2017-08-08T10:10:08.753Z,7.23
2017-08-08T10:12:36.229Z,5.67
2017-08-08T10:15:03.699Z,11.43
2017-08-08T10:17:31.266Z,6.00
2017-08-08T10:19:58.738Z,6.27
2017-08-08T10:22:26.221Z,6.73
2017-08-08T10:24:53.676Z,6.23
2017-08-08T10:27:22.636Z,8.10
2017-08-08T10:29:50.595Z,12.53
2017-08-08T10:32:18.149Z,9.00
2017-08-08T10:34:45.631Z,9.03
2017-08-08T10:37:13.107Z,10.30
2017-08-08T10:39:40.729Z,8.37
2017-08-08T10:42:08.205Z,9.10
2017-08-08T10:44:35.733Z,9.10
2017-08-08T10:47:03.199Z,7.03
2017-08-08T10:49:31.125Z,10.60
2017-08-08T10:51:58.609Z,10.30
2017-08-08T10:54:26.081Z,15.50
2017-08-08T10:56:53.559Z,10.20
2017-08-08T10:59:21.057Z,8.90
2017-08-08T11:01:49.037Z,8.17
2017-08-08T11:04:16.517Z,12.80
2017-08-08T11:06:44.072Z,11.20
2017-08-08T11:09:11.546Z,7.10
2017-08-08T11:11:39.176Z,6.30
2017-08-08T11:14:06.653Z,8.13
2017-08-08T11:16:34.147Z,8.20
2017-08-08T11:19:01.610Z,8.80
2017-08-08T11:21:29.081Z,9.63
2017-08-08T11:24:01.731Z,11.50
2017-08-08T11:26:29.207Z,7.63
2017-08-08T11:28:57.486Z,9.20
2017-08-08T11:31:25.725Z,7.90
2017-08-08T11:33:53.395Z,13.10
2017-08-08T11:36:20.879Z,6.70
2017-08-08T11:38:48.527Z,11.17
2017-08-08T11:41:24.590Z,8.27
2017-08-08T11:44:02.731Z,9.00
2017-08-08T11:46:36.859Z,14.00
2017-08-08T11:49:08.873Z,8.20
2017-08-08T11:51:36.816Z,15.77
2017-08-08T11:54:04.293Z,7.47
2017-08-08T11:56:32.531Z,8.50
2017-08-08T11:59:00.156Z,7.97
2017-08-08T12:01:27.618Z,7.73
2017-08-08T12:03:55.115Z,11.97
2017-08-08T12:06:22.588Z,9.23
2017-08-08T12:08:50.053Z,7.00
2017-08-08T12:11:18.298Z,11.63
2017-08-08T12:13:45.794Z,9.00
2017-08-08T12:16:14.019Z,9.63
2017-08-08T12:18:41.509Z,14.60
2017-08-08T12:21:08.976Z,11.53
2017-08-08T12:23:37.252Z,9.90
2017-08-08T12:26:05.607Z,7.93
2017-08-08T12:28:33.345Z,8.03
2017-08-08T12:31:00.830Z,10.73
2017-08-08T12:33:28.396Z,8.10
2017-08-08T12:35:56.001Z,7.83
2017-08-08T12:38:23.478Z,7.13
2017-08-08T12:40:50.969Z,5.63
2017-08-08T12:43:18.443Z,10.23
2017-08-08T12:45:46.701Z,5.47
2017-08-08T12:48:14.265Z,10.33
2017-08-08T12:50:41.745Z,6.43
2017-08-08T12:53:09.982Z,9.30
2017-08-08T12:55:37.447Z,6.20
2017-08-08T12:58:05.535Z,8.87
2017-08-08T13:00:33.776Z,10.13
2017-08-08T13:03:01.477Z,18.10
2017-08-08T13:05:29.717Z,11.63
2017-08-08T13:07:57.169Z,9.70
2017-08-08T13:10:24.654Z,10.50
2017-08-08T13:12:52.902Z,9.97
2017-08-08T13:15:20.394Z,8.83
2017-08-08T13:17:48.856Z,9.90
2017-08-08T13:20:16.423Z,7.17
2017-08-08T13:22:43.899Z,14.27
2017-08-08T13:25:12.144Z,8.40
2017-08-08T13:27:39.620Z,7.93
2017-08-08T13:30:07.950Z,8.23
2017-08-08T13:32:35.435Z,8.70
2017-08-08T13:35:02.906Z,12.87
2017-08-08T13:37:30.393Z,10.17
2017-08-08T13:39:57.894Z,10.13
2017-08-08T13:42:25.363Z,9.77
2017-08-08T13:44:52.851Z,10.10
2017-08-08T13:47:21.086Z,10.40
2017-08-08T13:49:48.578Z,9.90
2017-08-08T13:52:17.243Z,12.97
2017-08-08T13:54:44.921Z,10.90
2017-08-08T13:57:13.302Z,10.50
2017-08-08T13:59:41.550Z,12.37
2017-08-08T14:02:09.058Z,13.13
2017-08-08T14:04:37.349Z,11.43
2017-08-08T14:07:04.968Z,10.43
2017-08-08T14:09:33.188Z,11.13
2017-08-08T14:12:00.709Z,10.67
2017-08-08T14:14:29.593Z,12.70
2017-08-08T14:16:57.846Z,11.07
2017-08-08T14:19:25.694Z,12.63
2017-08-08T14:21:53.184Z,10.93
2017-08-08T14:24:21.428Z,11.70
2017-08-08T14:26:48.904Z,14.73
2017-08-08T14:29:16.411Z,14.20
2017-08-08T14:31:43.878Z,11.60
2017-08-08T14:34:11.388Z,11.63
2017-08-08T14:36:39.620Z,16.47
2017-08-08T14:39:07.093Z,11.47
2017-08-08T14:41:34.672Z,13.07
2017-08-08T14:44:02.935Z,11.80
2017-08-08T14:46:30.404Z,11.50
2017-08-08T14:48:57.862Z,11.53
2017-08-08T14:51:26.109Z,11.13
2017-08-08T14:53:53.651Z,9.10
2017-08-08T14:56:21.122Z,8.70
2017-08-08T14:58:48.609Z,9.27
2017-08-08T15:01:16.107Z,9.90
2017-08-08T15:03:43.638Z,10.27
2017-08-08T15:06:11.100Z,9.30
2017-08-08T15:08:38.579Z,9.50
2017-08-08T15:11:06.050Z,8.07
2017-08-08T15:13:33.714Z,8.20
2017-08-08T15:16:01.170Z,9.07
2017-08-08T15:18:28.662Z,9.63
2017-08-08T15:20:56.132Z,7.90
2017-08-08T15:23:23.659Z,11.80
2017-08-08T15:25:51.137Z,16.40
2017-08-08T15:28:18.612Z,10.67
2017-08-08T15:30:46.849Z,13.83
2017-08-08T15:33:14.331Z,9.77
2017-08-08T15:35:42.578Z,9.53
2017-08-08T15:38:10.221Z,9.03
2017-08-08T15:40:37.721Z,10.43
2017-08-08T15:43:05.184Z,10.67
2017-08-08T15:45:33.438Z,14.27
2017-08-08T15:48:00.974Z,10.63
2017-08-08T15:50:30.139Z,7.10
2017-08-08T15:52:59.611Z,5.87
2017-08-08T15:55:28.976Z,8.87
2017-08-08T15:57:58.094Z,6.77
2017-08-08T16:00:27.421Z,8.77
2017-08-08T16:02:56.706Z,10.30
2017-08-08T16:05:25.838Z,8.37
2017-08-08T16:07:54.989Z,9.63
2017-08-08T16:10:24.160Z,10.00
2017-08-08T16:12:53.546Z,6.67
2017-08-08T16:15:22.808Z,6.93
2017-08-08T16:17:51.917Z,9.20
2017-08-08T16:20:21.238Z,6.57
2017-08-08T16:22:50.392Z,7.53
2017-08-08T16:25:19.681Z,9.80
2017-08-08T16:27:48.809Z,14.67
2017-08-08T16:30:17.933Z,10.87
2017-08-08T16:32:47.081Z,9.97
2017-08-08T16:35:16.321Z,11.30
2017-08-08T16:37:45.462Z,11.40
2017-08-08T16:40:14.640Z,16.83
2017-08-08T16:42:43.760Z,11.20
2017-08-08T16:45:12.901Z,11.03
2017-08-08T16:47:42.021Z,11.37
2017-08-08T16:50:11.149Z,9.97
2017-08-08T16:52:40.294Z,9.77
2017-08-08T16:55:09.406Z,12.03
2017-08-08T16:57:38.545Z,11.20
2017-08-08T17:00:07.849Z,10.13
2017-08-08T17:02:37.142Z,10.90
2017-08-08T17:05:06.261Z,10.73
2017-08-08T17:07:36.197Z,11.17
2017-08-08T17:10:05.349Z,12.73
2017-08-08T17:12:34.493Z,12.97
2017-08-08T17:15:03.733Z,14.47
2017-08-08T17:17:32.863Z,20.73
2017-08-08T17:20:02.009Z,20.43
2017-08-08T17:22:31.130Z,21.43
2017-08-08T17:25:00.260Z,23.30
2017-08-08T17:27:29.378Z,22.40
2017-08-08T17:29:58.533Z,26.90
2017-08-08T17:32:27.678Z,23.83
2017-08-08T17:34:56.814Z,25.03
2017-08-08T17:37:25.943Z,21.13
2017-08-08T17:39:55.322Z,15.67
2017-08-08T17:42:24.464Z,14.50
2017-08-08T17:44:53.705Z,14.10
2017-08-08T17:47:22.856Z,12.27
2017-08-08T17:49:51.971Z,15.00
2017-08-08T17:52:21.119Z,10.27
2017-08-08T17:54:50.416Z,12.10
2017-08-08T17:57:19.545Z,8.77
2017-08-08T17:59:48.653Z,8.37
2017-08-08T18:02:17.796Z,7.77
2017-08-08T18:04:46.902Z,7.87
2017-08-08T18:07:16.016Z,7.03
2017-08-08T18:09:45.358Z,6.30
2017-08-08T18:12:14.511Z,7.90
2017-08-08T18:14:43.681Z,11.57
2017-08-08T18:17:12.963Z,10.00
2017-08-08T18:19:42.083Z,9.10
2017-08-08T18:22:11.218Z,10.80
2017-08-08T18:24:40.337Z,8.77
2017-08-08T18:27:09.466Z,9.40
2017-08-08T18:29:38.586Z,9.53
2017-08-08T18:32:07.759Z,10.20
2017-08-08T18:34:36.894Z,11.43
2017-08-08T18:37:06.026Z,10.67
2017-08-08T18:39:35.320Z,11.77
2017-08-08T18:42:05.107Z,12.83
2017-08-08T18:44:34.241Z,11.57
2017-08-08T18:47:03.417Z,14.83
2017-08-08T18:49:32.556Z,12.23
2017-08-08T18:52:01.733Z,14.27
2017-08-08T18:54:30.896Z,12.53
2017-08-08T18:57:00.052Z,15.83
2017-08-08T18:59:29.379Z,13.00
2017-08-08T19:01:58.517Z,13.87
2017-08-08T19:04:27.689Z,15.87
2017-08-08T19:06:56.819Z,15.10
2017-08-08T19:09:25.953Z,15.90
2017-08-08T19:11:55.689Z,15.90
2017-08-08T19:14:24.810Z,16.17
2017-08-08T19:16:53.965Z,16.70
2017-08-08T19:19:23.204Z,21.70
2017-08-08T19:21:52.350Z,16.40
2017-08-08T19:24:21.684Z,18.13
2017-08-08T19:26:50.798Z,19.50
2017-08-08T19:29:19.904Z,18.83
2017-08-08T19:31:49.050Z,17.83
2017-08-08T19:34:18.208Z,17.20
2017-08-08T19:36:47.362Z,16.57
2017-08-08T19:39:16.636Z,23.33
2017-08-08T19:41:45.769Z,15.83
2017-08-08T19:44:14.932Z,16.30
2017-08-08T19:46:44.066Z,16.03
2017-08-08T19:49:13.222Z,15.40
2017-08-08T19:51:42.372Z,21.63
2017-08-08T19:54:11.551Z,16.63
2017-08-08T19:56:40.700Z,17.90
2017-08-08T19:59:09.817Z,16.70
2017-08-08T20:01:38.954Z,17.10
2017-08-08T20:04:08.105Z,16.07
2017-08-08T20:06:37.377Z,18.17
2017-08-08T20:09:06.499Z,17.23
2017-08-08T20:11:35.638Z,16.07
2017-08-08T20:14:04.994Z,16.30
2017-08-08T20:16:34.156Z,16.57
2017-08-08T20:19:03.347Z,17.90
2017-08-08T20:21:32.485Z,16.30
2017-08-08T20:24:01.689Z,16.80
2017-08-08T20:26:30.838Z,15.80
2017-08-08T20:28:59.961Z,16.43
2017-08-08T20:31:29.114Z,22.40
2017-08-08T20:33:58.259Z,20.60
2017-08-08T20:36:27.405Z,21.53
2017-08-08T20:38:56.668Z,25.50
2017-08-08T20:41:25.800Z,24.10
2017-08-08T20:43:54.937Z,24.63
2017-08-08T20:46:24.685Z,21.97
2017-08-08T20:48:53.833Z,21.43
2017-08-08T20:51:22.965Z,22.93
2017-08-08T20:53:52.123Z,23.80
2017-08-08T20:56:21.247Z,22.20
2017-08-08T20:58:50.370Z,21.80
2017-08-08T21:01:19.536Z,24.10
2017-08-08T21:03:48.657Z,23.33
2017-08-08T21:06:17.891Z,23.80
2017-08-08T21:08:47.086Z,24.17
2017-08-08T21:11:16.347Z,23.80
2017-08-08T21:13:45.748Z,25.93
2017-08-08T21:16:14.889Z,25.73
2017-08-08T21:18:44.031Z,22.23
2017-08-08T21:21:13.233Z,24.60
2017-08-08T21:23:42.397Z,22.00
2017-08-08T21:26:11.781Z,25.50
2017-08-08T21:28:40.941Z,22.93
2017-08-08T21:31:10.094Z,23.90
2017-08-08T21:33:39.249Z,22.50
2017-08-08T21:36:08.386Z,31.07
2017-08-08T21:38:37.516Z,25.30
2017-08-08T21:41:06.640Z,30.73
2017-08-08T21:43:35.785Z,29.30
2017-08-08T21:46:05.723Z,30.87
2017-08-08T21:48:34.865Z,28.00
2017-08-08T21:51:04.000Z,29.03
2017-08-08T21:53:33.151Z,32.07
2017-08-08T21:56:02.413Z,30.90
2017-08-08T21:58:31.547Z,27.17
2017-08-08T22:01:00.692Z,26.17
2017-08-08T22:03:29.883Z,31.23
2017-08-08T22:05:59.016Z,28.80
2017-08-08T22:08:28.217Z,37.23
2017-08-08T22:10:58.260Z,33.47
2017-08-08T22:13:27.511Z,31.33
2017-08-08T22:15:56.758Z,36.53
2017-08-08T22:18:25.882Z,33.17
2017-08-08T22:23:43.745Z,31.30
2017-08-08T22:26:14.642Z,33.30
2017-08-08T22:28:43.787Z,35.60
2017-08-08T22:31:13.091Z,39.37
2017-08-08T22:33:42.221Z,35.73
2017-08-08T22:36:11.482Z,34.97
2017-08-08T22:41:17.605Z,36.03
2017-08-08T22:43:46.795Z,33.40
2017-08-08T22:46:16.014Z,35.90
2017-08-08T22:48:45.149Z,31.43
2017-08-08T22:51:14.282Z,37.50
2017-08-08T22:53:43.412Z,30.23
2017-08-08T22:56:13.930Z,37.30
2017-08-08T22:58:44.179Z,35.80
2017-08-08T23:01:13.394Z,42.63
2017-08-08T23:03:42.569Z,38.40
2017-08-08T23:06:11.728Z,35.87
2017-08-08T23:08:40.875Z,37.97
2017-08-08T23:11:10.211Z,37.60
2017-08-08T23:13:39.390Z,40.97
2017-08-08T23:16:08.552Z,39.33
2017-08-08T23:18:37.886Z,35.10
2017-08-08T23:21:07.304Z,41.60
2017-08-08T23:23:36.560Z,34.83
2017-08-08T23:26:05.689Z,44.67
2017-08-08T23:28:34.832Z,41.63
2017-08-08T23:31:03.944Z,40.97
2017-08-08T23:33:33.114Z,37.97
2017-08-08T23:36:02.289Z,38.03
2017-08-08T23:38:31.646Z,40.70
2017-08-08T23:41:00.796Z,39.93
2017-08-08T23:43:30.050Z,41.50
2017-08-08T23:45:59.221Z,36.60
2017-08-08T23:48:28.359Z,39.90
2017-08-08T23:50:57.734Z,34.10
2017-08-08T23:53:26.862Z,35.30
2017-08-08T23:55:56.227Z,35.43
2017-08-08T23:58:25.355Z,38.40
